createdAt,value
2019-04-16T00:01:23.627Z,98750.00
2019-04-16T00:03:57.467Z,98751.00
2019-04-16T00:06:54.186Z,98748.00
2019-04-16T00:09:53.858Z,98732.00
2019-04-16T00:12:41.661Z,98743.00
2019-04-16T00:15:10.734Z,98739.00
2019-04-16T00:17:39.825Z,98740.00
2019-04-16T00:20:08.878Z,98741.00
2019-04-16T00:22:43.390Z,98735.00
2019-04-16T00:25:12.545Z,98725.00
2019-04-16T00:27:41.814Z,98727.00
2019-04-16T00:30:10.959Z,98723.00
2019-04-16T00:32:42.480Z,98726.00
2019-04-16T00:35:15.323Z,98725.00
2019-04-16T00:37:41.354Z,98719.00
2019-04-16T00:40:10.498Z,98720.00
2019-04-16T00:42:39.585Z,98718.00
2019-04-16T00:45:08.679Z,98725.00
2019-04-16T00:47:37.735Z,98717.00
2019-04-16T00:50:06.879Z,98720.00
2019-04-16T00:52:36.974Z,98726.00
2019-04-16T00:55:06.776Z,98719.00
2019-04-16T00:57:35.917Z,98729.00
2019-04-16T01:00:05.817Z,98720.00
2019-04-16T01:02:35.190Z,98720.00
2019-04-16T01:05:04.757Z,98724.00
2019-04-16T01:07:33.985Z,98714.00
2019-04-16T01:10:03.402Z,98716.00
2019-04-16T01:12:32.405Z,98723.00
2019-04-16T01:15:01.620Z,98718.00
2019-04-16T01:17:33.432Z,98733.00
2019-04-16T01:20:01.558Z,98723.00
2019-04-16T01:22:30.617Z,98726.00
2019-04-16T01:24:59.609Z,98733.00
2019-04-16T01:27:32.556Z,98731.00
2019-04-16T01:30:04.865Z,98729.00
2019-04-16T01:32:54.695Z,98727.00
2019-04-16T01:35:52.625Z,98723.00
2019-04-16T01:38:36.380Z,98729.00
2019-04-16T01:41:07.855Z,98733.00
2019-04-16T01:43:37.192Z,98731.00
2019-04-16T01:46:06.262Z,98722.00
2019-04-16T01:48:38.616Z,98729.00
2019-04-16T01:51:06.113Z,98721.00
2019-04-16T01:53:35.104Z,98727.00
2019-04-16T01:56:04.252Z,98744.00
2019-04-16T01:58:33.841Z,98722.00
2019-04-16T02:01:03.932Z,98734.00
2019-04-16T02:03:32.990Z,98737.00
2019-04-16T02:06:02.428Z,98734.00
2019-04-16T02:08:31.814Z,98721.00
2019-04-16T02:11:00.944Z,98726.00
2019-04-16T02:13:30.148Z,98728.00
2019-04-16T02:15:59.302Z,98733.00
2019-04-16T02:18:29.806Z,98727.00
2019-04-16T02:20:59.210Z,98723.00
2019-04-16T02:23:28.247Z,98718.00
2019-04-16T02:25:57.423Z,98729.00
2019-04-16T02:28:28.321Z,98728.00
2019-04-16T02:30:57.436Z,98730.00
2019-04-16T02:33:26.519Z,98728.00
2019-04-16T02:35:55.605Z,98733.00
2019-04-16T02:38:24.707Z,98729.00
2019-04-16T02:40:53.695Z,98730.00
2019-04-16T02:43:23.093Z,98733.00
2019-04-16T02:45:56.695Z,98733.00
2019-04-16T02:48:23.230Z,98732.00
2019-04-16T02:50:55.921Z,98730.00
2019-04-16T02:53:42.389Z,98727.00
2019-04-16T02:56:28.875Z,98727.00
2019-04-16T02:59:10.096Z,98731.00
2019-04-16T03:02:02.439Z,98724.00
2019-04-16T03:04:37.035Z,98725.00
2019-04-16T03:07:06.200Z,98723.00
2019-04-16T03:09:39.754Z,98726.00
2019-04-16T03:12:06.276Z,98717.00
2019-04-16T03:14:35.487Z,98720.00
2019-04-16T03:17:15.608Z,98716.00
2019-04-16T03:19:45.328Z,98720.00
2019-04-16T03:22:14.475Z,98716.00
2019-04-16T03:24:43.683Z,98720.00
2019-04-16T03:27:12.834Z,98713.00
2019-04-16T03:29:42.093Z,98706.00
2019-04-16T03:32:14.249Z,98716.00
2019-04-16T03:34:41.931Z,98719.00
2019-04-16T03:37:11.027Z,98713.00
2019-04-16T03:39:43.768Z,98718.00
2019-04-16T03:42:11.216Z,98713.00
2019-04-16T03:44:40.245Z,98720.00
2019-04-16T03:47:10.735Z,98725.00
2019-04-16T03:49:39.959Z,98712.00
2019-04-16T03:52:09.786Z,98715.00
2019-04-16T03:54:38.943Z,98721.00
2019-04-16T03:57:08.033Z,98717.00
2019-04-16T03:59:40.057Z,98703.00
2019-04-16T04:02:07.886Z,98706.00
2019-04-16T04:04:37.094Z,98697.00
2019-04-16T04:07:09.010Z,98707.00
2019-04-16T04:09:37.085Z,98705.00
2019-04-16T04:12:06.318Z,98723.00
2019-04-16T04:14:35.547Z,98713.00
2019-04-16T04:17:06.623Z,98707.00
2019-04-16T04:19:35.644Z,98716.00
2019-04-16T04:22:04.707Z,98715.00
2019-04-16T04:24:33.924Z,98717.00
2019-04-16T04:27:03.086Z,98720.00
2019-04-16T04:29:32.226Z,98722.00
2019-04-16T04:32:03.413Z,98722.00
2019-04-16T04:34:32.320Z,98724.00
2019-04-16T04:37:01.485Z,98724.00
2019-04-16T04:39:30.745Z,98725.00
2019-04-16T04:41:59.830Z,98733.00
2019-04-16T04:44:29.291Z,98735.00
2019-04-16T04:46:58.441Z,98736.00
2019-04-16T04:49:30.373Z,98735.00
2019-04-16T04:51:58.392Z,98738.00
2019-04-16T04:54:27.549Z,98741.00
2019-04-16T04:56:59.180Z,98736.00
2019-04-16T04:59:27.473Z,98738.00
2019-04-16T05:01:56.470Z,98740.00
2019-04-16T05:04:43.201Z,98742.00
2019-04-16T05:07:12.793Z,98749.00
2019-04-16T05:09:41.946Z,98743.00
2019-04-16T05:12:10.937Z,98744.00
2019-04-16T05:14:50.972Z,98750.00
2019-04-16T05:17:20.207Z,98747.00
2019-04-16T05:19:49.269Z,98738.00
2019-04-16T05:22:21.527Z,98740.00
2019-04-16T05:24:49.215Z,98741.00
2019-04-16T05:27:18.401Z,98736.00
2019-04-16T05:29:49.548Z,98738.00
2019-04-16T05:32:18.630Z,98745.00
2019-04-16T05:34:47.836Z,98744.00
2019-04-16T05:37:19.846Z,98752.00
2019-04-16T05:39:47.696Z,98750.00
2019-04-16T05:42:16.982Z,98745.00
2019-04-16T05:44:46.049Z,98746.00
2019-04-16T05:47:18.078Z,98743.00
2019-04-16T05:49:45.665Z,98738.00
2019-04-16T05:52:14.588Z,98745.00
2019-04-16T05:55:04.309Z,98754.00
2019-04-16T05:57:35.227Z,98744.00
2019-04-16T06:00:09.367Z,98745.00
2019-04-16T06:02:42.814Z,98759.00
2019-04-16T06:05:11.688Z,98761.00
2019-04-16T06:07:40.434Z,98757.00
2019-04-16T06:10:09.152Z,98763.00
2019-04-16T06:12:50.314Z,98758.00
2019-04-16T06:15:28.410Z,98751.00
2019-04-16T06:18:17.603Z,98749.00
2019-04-16T06:20:53.773Z,98754.00
2019-04-16T06:23:35.716Z,98751.00
2019-04-16T06:26:17.677Z,98741.00
2019-04-16T06:29:08.362Z,98750.00
2019-04-16T06:31:46.215Z,98743.00
2019-04-16T06:34:31.767Z,98747.00
2019-04-16T06:37:26.979Z,98756.00
2019-04-16T06:40:10.387Z,98753.00
2019-04-16T06:42:47.821Z,98750.00
2019-04-16T06:45:23.793Z,98754.00
2019-04-16T06:48:03.237Z,98746.00
2019-04-16T06:51:00.250Z,98759.00
2019-04-16T06:53:57.658Z,98750.00
2019-04-16T06:56:40.326Z,98754.00
2019-04-16T06:59:17.922Z,98746.00
2019-04-16T07:02:04.508Z,98740.00
2019-04-16T07:04:55.313Z,98744.00
2019-04-16T07:07:45.795Z,98741.00
2019-04-16T07:10:15.258Z,98740.00
2019-04-16T07:12:44.023Z,98735.00
2019-04-16T07:15:12.943Z,98742.00
2019-04-16T07:17:41.751Z,98737.00
2019-04-16T07:20:13.327Z,98737.00
2019-04-16T07:22:40.938Z,98734.00
2019-04-16T07:25:09.754Z,98737.00
2019-04-16T07:27:52.052Z,98740.00
2019-04-16T07:30:39.951Z,98744.00
2019-04-16T07:33:25.539Z,98735.00
2019-04-16T07:35:57.783Z,98736.00
2019-04-16T07:38:41.458Z,98737.00
2019-04-16T07:41:27.352Z,98736.00
2019-04-16T07:44:21.424Z,98741.00
2019-04-16T07:47:19.614Z,98734.00
2019-04-16T07:49:55.933Z,98735.00
2019-04-16T07:52:54.596Z,98733.00
2019-04-16T07:55:36.346Z,98738.00
2019-04-16T07:58:05.255Z,98734.00
2019-04-16T08:00:33.996Z,98740.00
2019-04-16T08:03:02.929Z,98738.00
2019-04-16T08:05:31.670Z,98733.00
2019-04-16T08:08:00.694Z,98738.00
2019-04-16T08:10:29.545Z,98732.00
2019-04-16T08:13:06.586Z,98735.00
2019-04-16T08:15:35.380Z,98735.00
2019-04-16T08:18:04.117Z,98731.00
2019-04-16T08:20:33.210Z,98731.00
2019-04-16T08:23:04.307Z,98730.00
2019-04-16T08:25:34.046Z,98736.00
2019-04-16T08:28:06.820Z,98735.00
2019-04-16T08:30:37.227Z,98736.00
2019-04-16T08:33:04.691Z,98734.00
2019-04-16T08:35:33.547Z,98732.00
2019-04-16T08:38:02.418Z,98727.00
2019-04-16T08:40:31.197Z,98737.00
2019-04-16T08:43:00.052Z,98736.00
2019-04-16T08:45:28.796Z,98733.00
2019-04-16T08:47:57.721Z,98744.00
2019-04-16T08:50:27.009Z,98739.00
2019-04-16T08:52:55.939Z,98740.00
2019-04-16T08:55:24.719Z,98739.00
2019-04-16T08:57:53.459Z,98736.00
2019-04-16T09:00:22.282Z,98725.00
2019-04-16T09:02:51.030Z,98724.00
2019-04-16T09:05:19.768Z,98731.00
2019-04-16T09:07:50.955Z,98732.00
2019-04-16T09:10:23.560Z,98724.00
2019-04-16T09:13:02.477Z,98718.00
2019-04-16T09:15:28.169Z,98710.00
2019-04-16T09:18:12.244Z,98718.00
2019-04-16T09:20:42.697Z,98722.00
2019-04-16T09:23:11.451Z,98718.00
2019-04-16T09:26:12.514Z,98714.00
2019-04-16T09:28:47.366Z,98707.00
2019-04-16T09:31:41.108Z,98708.00
2019-04-16T09:34:17.309Z,98700.00
2019-04-16T09:37:11.519Z,98702.00
2019-04-16T09:39:57.773Z,98699.00
2019-04-16T09:42:26.762Z,98693.00
2019-04-16T09:44:55.494Z,98693.00
2019-04-16T09:47:24.331Z,98691.00
2019-04-16T09:49:53.115Z,98694.00
2019-04-16T09:52:23.207Z,98691.00
2019-04-16T09:54:52.626Z,98683.00
2019-04-16T09:57:24.247Z,98683.00
2019-04-16T10:00:02.804Z,98678.00
2019-04-16T10:02:33.867Z,98678.00
2019-04-16T10:05:02.918Z,98673.00
2019-04-16T10:07:31.688Z,98678.00
2019-04-16T10:10:00.442Z,98679.00
2019-04-16T10:12:29.259Z,98665.00
2019-04-16T10:14:58.090Z,98664.00
2019-04-16T10:17:27.128Z,98662.00
2019-04-16T10:19:56.108Z,98684.00
2019-04-16T10:22:24.945Z,98663.00
2019-04-16T10:25:13.848Z,98678.00
2019-04-16T10:27:44.587Z,98676.00
2019-04-16T10:30:22.985Z,98675.00
2019-04-16T10:32:51.861Z,98678.00
2019-04-16T10:35:20.677Z,98670.00
2019-04-16T10:37:49.430Z,98667.00
2019-04-16T10:40:43.279Z,98656.00
2019-04-16T10:43:43.692Z,98656.00
2019-04-16T10:46:19.607Z,98659.00
2019-04-16T10:48:57.142Z,98656.00
2019-04-16T10:51:50.976Z,98648.00
2019-04-16T10:54:25.332Z,98638.00
2019-04-16T10:57:11.997Z,98650.00
2019-04-16T10:59:49.775Z,98656.00
2019-04-16T11:02:37.161Z,98643.00
2019-04-16T11:05:23.453Z,98652.00
2019-04-16T11:07:52.308Z,98651.00
2019-04-16T11:10:21.110Z,98650.00
2019-04-16T11:12:49.897Z,98645.00
2019-04-16T11:15:23.425Z,98645.00
2019-04-16T11:17:52.463Z,98655.00
2019-04-16T11:20:21.187Z,98642.00
2019-04-16T11:22:49.973Z,98652.00
2019-04-16T11:25:18.724Z,98637.00
2019-04-16T11:27:47.479Z,98644.00
2019-04-16T11:30:30.566Z,98637.00
2019-04-16T11:32:59.469Z,98637.00
2019-04-16T11:35:28.235Z,98643.00
2019-04-16T11:37:56.978Z,98637.00
2019-04-16T11:40:25.811Z,98642.00
2019-04-16T11:42:54.591Z,98645.00
2019-04-16T11:45:23.456Z,98644.00
2019-04-16T11:47:52.199Z,98642.00
2019-04-16T11:50:21.151Z,98644.00
2019-04-16T11:52:49.930Z,98644.00
2019-04-16T11:55:18.672Z,98631.00
2019-04-16T11:57:47.409Z,98633.00
2019-04-16T12:00:22.141Z,98642.00
2019-04-16T12:02:58.034Z,98637.00
2019-04-16T12:05:32.906Z,98635.00
2019-04-16T12:08:15.459Z,98622.00
2019-04-16T12:11:02.242Z,98628.00
2019-04-16T12:13:49.254Z,98624.00
2019-04-16T12:16:26.300Z,98636.00
2019-04-16T12:19:26.451Z,98622.00
2019-04-16T12:22:15.310Z,98618.00
2019-04-16T12:25:06.248Z,98623.00
2019-04-16T12:27:47.206Z,98624.00
2019-04-16T12:30:37.887Z,98606.00
2019-04-16T12:33:26.074Z,98612.00
2019-04-16T12:36:14.329Z,98619.00
2019-04-16T12:38:54.979Z,98628.00
2019-04-16T12:41:35.849Z,98618.00
2019-04-16T12:44:45.612Z,98617.00
2019-04-16T12:47:28.245Z,98607.00
2019-04-16T12:50:05.425Z,98621.00
2019-04-16T12:52:41.139Z,98606.00
2019-04-16T12:55:31.446Z,98609.00
2019-04-16T12:58:08.191Z,98607.00
2019-04-16T13:00:53.456Z,98613.00
2019-04-16T13:03:35.587Z,98619.00
2019-04-16T13:06:12.705Z,98608.00
2019-04-16T13:09:13.134Z,98610.00
2019-04-16T13:12:16.135Z,98610.00
2019-04-16T13:15:13.338Z,98605.00
2019-04-16T13:17:59.501Z,98600.00
2019-04-16T13:20:57.547Z,98607.00
2019-04-16T13:23:44.493Z,98605.00
2019-04-16T13:26:34.365Z,98599.00
2019-04-16T13:29:22.166Z,98601.00
2019-04-16T13:31:50.903Z,98590.00
2019-04-16T13:34:19.977Z,98599.00
2019-04-16T13:36:51.713Z,98607.00
2019-04-16T13:39:27.046Z,98587.00
2019-04-16T13:41:55.798Z,98583.00
2019-04-16T13:44:27.299Z,98586.00
2019-04-16T13:47:01.186Z,98580.00
2019-04-16T13:49:41.821Z,98591.00
2019-04-16T13:52:10.538Z,98579.00
2019-04-16T13:54:51.567Z,98586.00
2019-04-16T13:57:21.871Z,98585.00
2019-04-16T14:00:06.870Z,98587.00
2019-04-16T14:02:51.058Z,98586.00
2019-04-16T14:05:20.952Z,98586.00
2019-04-16T14:07:49.676Z,98589.00
2019-04-16T14:10:18.565Z,98584.00
2019-04-16T14:12:47.344Z,98584.00
2019-04-16T14:15:30.818Z,98583.00
2019-04-16T14:17:53.101Z,98580.00
2019-04-16T14:20:17.470Z,98595.00
2019-04-16T14:22:46.186Z,98584.00
2019-04-16T14:25:14.914Z,98588.00
2019-04-16T14:27:43.659Z,98585.00
2019-04-16T14:30:16.165Z,98588.00
2019-04-16T14:32:44.921Z,98587.00
2019-04-16T14:35:31.997Z,98587.00
2019-04-16T14:37:47.277Z,98578.00
2019-04-16T14:40:22.498Z,98581.00
2019-04-16T14:42:56.301Z,98588.00
2019-04-16T14:45:25.534Z,98582.00
2019-04-16T14:48:13.909Z,98579.00
2019-04-16T14:50:43.132Z,98579.00
2019-04-16T14:53:13.830Z,98581.00
2019-04-16T14:55:59.674Z,98577.00
2019-04-16T14:58:39.833Z,98585.00
2019-04-16T15:01:27.936Z,98584.00
2019-04-16T15:04:19.288Z,98580.00
2019-04-16T15:07:07.876Z,98590.00
2019-04-16T15:09:55.994Z,98587.00
2019-04-16T15:12:43.043Z,98594.00
2019-04-16T15:15:31.227Z,98584.00
2019-04-16T15:18:19.348Z,98595.00
2019-04-16T15:21:13.503Z,98587.00
2019-04-16T15:24:04.589Z,98595.00
2019-04-16T15:26:52.324Z,98592.00
2019-04-16T15:29:24.108Z,98593.00
2019-04-16T15:32:11.565Z,98580.00
2019-04-16T15:34:43.591Z,98587.00
2019-04-16T15:37:33.953Z,98584.00
2019-04-16T15:40:08.307Z,98587.00
2019-04-16T15:42:53.235Z,98592.00
2019-04-16T15:45:29.131Z,98582.00
2019-04-16T15:48:14.862Z,98594.00
2019-04-16T15:51:02.134Z,98591.00
2019-04-16T15:53:42.741Z,98585.00
2019-04-16T15:56:30.814Z,98586.00
2019-04-16T15:59:25.082Z,98586.00
2019-04-16T16:02:19.216Z,98586.00
2019-04-16T16:04:56.126Z,98581.00
2019-04-16T16:07:28.203Z,98583.00
2019-04-16T16:10:16.347Z,98584.00
2019-04-16T16:12:45.564Z,98583.00
2019-04-16T16:15:14.831Z,98590.00
2019-04-16T16:17:43.901Z,98579.00
2019-04-16T16:20:12.953Z,98593.00
2019-04-16T16:22:41.977Z,98589.00
2019-04-16T16:25:11.331Z,98592.00
2019-04-16T16:27:43.858Z,98594.00
2019-04-16T16:30:14.390Z,98598.00
2019-04-16T16:32:42.135Z,98604.00
2019-04-16T16:35:11.210Z,98598.00
2019-04-16T16:37:40.337Z,98596.00
2019-04-16T16:40:11.967Z,98592.00
2019-04-16T16:42:40.398Z,98594.00
2019-04-16T16:45:09.445Z,98595.00
2019-04-16T16:47:41.505Z,98605.00
2019-04-16T16:50:13.422Z,98598.00
2019-04-16T16:52:56.840Z,98602.00
2019-04-16T16:55:37.717Z,98608.00
2019-04-16T16:58:30.864Z,98604.00
2019-04-16T17:01:17.596Z,98612.00
2019-04-16T17:03:58.492Z,98607.00
2019-04-16T17:06:27.731Z,98612.00
2019-04-16T17:08:56.859Z,98622.00
2019-04-16T17:11:25.918Z,98621.00
2019-04-16T17:13:57.867Z,98616.00
2019-04-16T17:16:26.182Z,98619.00
2019-04-16T17:18:55.315Z,98618.00
2019-04-16T17:21:24.472Z,98623.00
2019-04-16T17:23:53.827Z,98632.00
2019-04-16T17:26:22.996Z,98627.00
2019-04-16T17:28:52.074Z,98623.00
2019-04-16T17:31:21.211Z,98637.00
2019-04-16T17:33:50.501Z,98633.00
2019-04-16T17:36:19.616Z,98627.00
2019-04-16T17:38:48.771Z,98633.00
2019-04-16T17:41:22.808Z,98644.00
2019-04-16T17:44:10.979Z,98653.00
2019-04-16T17:46:55.621Z,98648.00
2019-04-16T17:49:30.123Z,98650.00
2019-04-16T17:52:20.647Z,98655.00
2019-04-16T17:55:00.627Z,98655.00
2019-04-16T17:58:07.274Z,98656.00
2019-04-16T18:00:53.991Z,98664.00
2019-04-16T18:03:45.005Z,98670.00
2019-04-16T18:06:24.403Z,98678.00
2019-04-16T18:09:12.591Z,98676.00
2019-04-16T18:12:00.752Z,98684.00
2019-04-16T18:14:37.866Z,98689.00
2019-04-16T18:17:46.416Z,98690.00
2019-04-16T18:20:21.604Z,98694.00
2019-04-16T18:23:03.633Z,98696.00
2019-04-16T18:25:57.934Z,98698.00
2019-04-16T18:28:31.239Z,98695.00
2019-04-16T18:31:05.589Z,98703.00
2019-04-16T18:33:53.685Z,98704.00
2019-04-16T18:36:38.157Z,98710.00
2019-04-16T18:39:27.088Z,98712.00
2019-04-16T18:42:09.353Z,98717.00
2019-04-16T18:44:46.891Z,98721.00
2019-04-16T18:47:44.127Z,98724.00
2019-04-16T18:50:19.697Z,98723.00
2019-04-16T18:52:47.671Z,98738.00
2019-04-16T18:55:16.671Z,98736.00
2019-04-16T18:57:45.718Z,98731.00
2019-04-16T19:00:51.893Z,98752.00
2019-04-16T19:03:21.050Z,98755.00
2019-04-16T19:05:50.059Z,98753.00
2019-04-16T19:08:19.261Z,98759.00
2019-04-16T19:10:48.390Z,98761.00
2019-04-16T19:13:19.887Z,98770.00
2019-04-16T19:15:48.324Z,98764.00
2019-04-16T19:18:20.013Z,98770.00
2019-04-16T19:20:51.432Z,98758.00
2019-04-16T19:23:21.385Z,98761.00
2019-04-16T19:25:51.762Z,98777.00
2019-04-16T19:28:22.662Z,98772.00
2019-04-16T19:30:52.693Z,98779.00
2019-04-16T19:33:21.947Z,98779.00
2019-04-16T19:35:51.994Z,98785.00
2019-04-16T19:38:21.460Z,98784.00
2019-04-16T19:40:50.936Z,98782.00
2019-04-16T19:43:20.804Z,98795.00
2019-04-16T19:45:49.866Z,98792.00
2019-04-16T19:48:34.272Z,98783.00
2019-04-16T19:50:49.864Z,98791.00
2019-04-16T19:53:18.988Z,98804.00
2019-04-16T19:55:48.401Z,98800.00
2019-04-16T19:58:17.502Z,98801.00
2019-04-16T20:00:46.721Z,98806.00
2019-04-16T20:03:15.893Z,98802.00
2019-04-16T20:05:45.432Z,98800.00
2019-04-16T20:08:14.788Z,98812.00
2019-04-16T20:10:44.079Z,98803.00
2019-04-16T20:13:13.259Z,98805.00
2019-04-16T20:15:44.246Z,98809.00
2019-04-16T20:18:13.474Z,98809.00
2019-04-16T20:20:42.674Z,98820.00
2019-04-16T20:23:11.840Z,98816.00
2019-04-16T20:25:40.903Z,98811.00
2019-04-16T20:28:15.425Z,98822.00
2019-04-16T20:30:40.853Z,98815.00
2019-04-16T20:33:10.238Z,98825.00
2019-04-16T20:35:39.371Z,98829.00
2019-04-16T20:38:08.577Z,98833.00
2019-04-16T20:40:37.709Z,98832.00
2019-04-16T20:43:06.879Z,98823.00
2019-04-16T20:45:36.093Z,98827.00
2019-04-16T20:48:05.353Z,98827.00
2019-04-16T20:50:34.484Z,98825.00
2019-04-16T20:53:07.641Z,98816.00
2019-04-16T20:55:34.668Z,98828.00
2019-04-16T20:58:03.704Z,98830.00
2019-04-16T21:00:34.232Z,98843.00
2019-04-16T21:03:03.799Z,98838.00
2019-04-16T21:05:35.751Z,98840.00
2019-04-16T21:08:03.865Z,98851.00
2019-04-16T21:10:35.680Z,98841.00
2019-04-16T21:13:04.765Z,98840.00
2019-04-16T21:15:33.872Z,98840.00
2019-04-16T21:18:02.985Z,98838.00
2019-04-16T21:20:32.114Z,98841.00
2019-04-16T21:23:03.332Z,98842.00
2019-04-16T21:25:32.244Z,98856.00
2019-04-16T21:28:14.946Z,98864.00
2019-04-16T21:30:44.783Z,98862.00
2019-04-16T21:33:20.525Z,98864.00
2019-04-16T21:35:52.731Z,98861.00
2019-04-16T21:38:29.196Z,98874.00
2019-04-16T21:40:58.313Z,98868.00
2019-04-16T21:43:27.538Z,98882.00
2019-04-16T21:45:56.655Z,98880.00
2019-04-16T21:48:27.080Z,98870.00
2019-04-16T21:50:57.087Z,98878.00
2019-04-16T21:53:27.946Z,98885.00
2019-04-16T21:55:57.233Z,98885.00
2019-04-16T21:58:26.341Z,98890.00
2019-04-16T22:01:20.063Z,98890.00
2019-04-16T22:03:53.994Z,98885.00
2019-04-16T22:06:23.376Z,98901.00
2019-04-16T22:08:52.378Z,98891.00
2019-04-16T22:11:21.428Z,98898.00
2019-04-16T22:13:51.352Z,98886.00
2019-04-16T22:16:20.468Z,98897.00
2019-04-16T22:18:49.504Z,98895.00
2019-04-16T22:21:18.648Z,98898.00
2019-04-16T22:23:50.388Z,98898.00
2019-04-16T22:26:18.533Z,98905.00
2019-04-16T22:28:47.612Z,98897.00
2019-04-16T22:31:16.840Z,98896.00
2019-04-16T22:33:45.911Z,98902.00
2019-04-16T22:36:14.923Z,98901.00
2019-04-16T22:38:46.944Z,98901.00
2019-04-16T22:41:32.905Z,98909.00
2019-04-16T22:44:13.388Z,98916.00
2019-04-16T22:46:54.874Z,98914.00
2019-04-16T22:49:24.069Z,98901.00
2019-04-16T22:51:53.143Z,98919.00
2019-04-16T22:54:22.264Z,98912.00
2019-04-16T22:57:03.548Z,98921.00
2019-04-16T22:59:32.604Z,98916.00
2019-04-16T23:02:02.511Z,98918.00
2019-04-16T23:04:31.638Z,98921.00
2019-04-16T23:07:00.707Z,98924.00
2019-04-16T23:09:31.128Z,98930.00
2019-04-16T23:12:00.119Z,98922.00
2019-04-16T23:14:31.661Z,98930.00
2019-04-16T23:17:00.276Z,98933.00
2019-04-16T23:19:29.402Z,98939.00
2019-04-16T23:21:58.453Z,98936.00
2019-04-16T23:24:27.590Z,98937.00
2019-04-16T23:26:56.748Z,98941.00
2019-04-16T23:29:25.940Z,98933.00
2019-04-16T23:31:56.210Z,98940.00
2019-04-16T23:34:25.343Z,98939.00
2019-04-16T23:36:54.657Z,98938.00
2019-04-16T23:39:23.723Z,98959.00
2019-04-16T23:41:52.873Z,98942.00
2019-04-16T23:44:46.846Z,98943.00
2019-04-16T23:47:53.124Z,98953.00
2019-04-16T23:50:44.750Z,98945.00
2019-04-16T23:53:19.904Z,98942.00
2019-04-16T23:56:04.526Z,98952.00
2019-04-16T23:59:02.555Z,98957.00
